Terminal Aerodrome Forecast
Issued by NWS Twin Cities, MN

Home | Current Version | Previous Version | Graphics & Text | Print | Product List | Glossary On
Versions: 1 2 3 4 5 6 7 8 9 10 11
677
FTUS43 KMPX 271736
TAFSTC
TAF
KSTC 271736Z 2718/2818 01005KT P6SM BKN090
     FM281000 VRB02KT 1SM BR FEW250
     FM281300 09004KT P6SM FEW250=

USA.gov is the U.S. government's official web portal to all federal, state and local government web resources and services.